createdAt,value
2022-10-05T00:00:06.679Z,5.90
2022-10-05T00:02:33.825Z,5.80
2022-10-05T00:05:00.629Z,5.23
2022-10-05T00:07:30.108Z,5.30
2022-10-05T00:09:58.865Z,5.47
2022-10-05T00:12:28.217Z,5.40
2022-10-05T00:15:01.774Z,5.27
2022-10-05T00:17:30.263Z,5.10
2022-10-05T00:19:57.560Z,4.87
2022-10-05T00:22:33.149Z,4.50
2022-10-05T00:25:02.355Z,5.10
2022-10-05T00:27:33.143Z,4.67
2022-10-05T00:30:03.711Z,4.77
2022-10-05T00:32:30.405Z,4.93
2022-10-05T00:34:57.738Z,4.87
2022-10-05T00:37:24.462Z,4.63
2022-10-05T00:39:51.247Z,5.17
2022-10-05T00:42:21.124Z,4.93
2022-10-05T00:45:00.404Z,4.40
2022-10-05T00:47:53.966Z,4.83
2022-10-05T00:50:46.909Z,5.07
2022-10-05T00:53:43.373Z,4.27
2022-10-05T00:56:55.572Z,4.83
2022-10-05T00:59:26.614Z,5.23
2022-10-05T01:02:21.521Z,6.30
2022-10-05T01:04:59.138Z,5.10
2022-10-05T01:07:42.109Z,5.53
2022-10-05T01:10:26.508Z,5.20
2022-10-05T01:12:59.008Z,6.10
2022-10-05T01:15:46.130Z,5.60
2022-10-05T01:18:17.158Z,5.37
2022-10-05T01:20:52.812Z,5.77
2022-10-05T01:23:50.421Z,6.13
2022-10-05T01:26:40.488Z,5.70
2022-10-05T01:29:43.860Z,5.57
2022-10-05T01:32:23.614Z,6.30
2022-10-05T01:35:02.415Z,6.03
2022-10-05T01:37:49.639Z,5.87
2022-10-05T01:40:24.446Z,5.63
2022-10-05T01:43:03.473Z,6.00
2022-10-05T01:46:04.947Z,5.70
2022-10-05T01:48:59.487Z,5.90
2022-10-05T01:51:41.343Z,6.00
2022-10-05T01:54:30.713Z,5.80
2022-10-05T01:57:30.055Z,6.07
2022-10-05T02:00:07.657Z,6.13
2022-10-05T02:03:07.567Z,6.83
2022-10-05T02:05:51.654Z,5.90
2022-10-05T02:08:31.163Z,5.63
2022-10-05T02:11:14.705Z,6.47
2022-10-05T02:13:53.011Z,6.17
2022-10-05T02:16:30.083Z,6.13
2022-10-05T02:19:04.947Z,5.93
2022-10-05T02:21:34.579Z,5.83
2022-10-05T02:24:08.647Z,6.17
2022-10-05T02:26:37.427Z,6.47
2022-10-05T02:29:09.775Z,6.93
2022-10-05T02:31:51.934Z,6.80
2022-10-05T02:34:23.069Z,6.70
2022-10-05T02:37:03.357Z,6.10
2022-10-05T02:39:51.012Z,5.93
2022-10-05T02:42:56.200Z,6.37
2022-10-05T02:45:43.998Z,6.63
2022-10-05T02:48:29.648Z,6.33
2022-10-05T02:51:22.775Z,6.27
2022-10-05T02:54:27.007Z,6.60
2022-10-05T02:56:57.079Z,7.10
2022-10-05T02:59:35.864Z,6.27
2022-10-05T03:02:10.582Z,6.53
2022-10-05T03:04:43.188Z,6.00
2022-10-05T03:07:21.841Z,5.93
2022-10-05T03:10:12.245Z,5.37
2022-10-05T03:12:41.886Z,6.47
2022-10-05T03:15:40.736Z,6.03
2022-10-05T03:18:30.723Z,6.83
2022-10-05T03:21:36.536Z,5.90
2022-10-05T03:24:40.872Z,5.90
2022-10-05T03:27:37.551Z,6.10
2022-10-05T03:30:16.626Z,6.27
2022-10-05T03:33:05.503Z,6.67
2022-10-05T03:35:40.657Z,6.37
2022-10-05T03:38:21.462Z,5.87
2022-10-05T03:41:03.967Z,5.67
2022-10-05T03:43:40.100Z,6.07
2022-10-05T03:46:19.247Z,5.83
2022-10-05T03:49:26.818Z,6.23
2022-10-05T03:52:02.696Z,5.80
2022-10-05T03:54:36.065Z,5.87
2022-10-05T03:57:23.240Z,5.17
2022-10-05T04:00:17.393Z,6.53
2022-10-05T04:03:00.636Z,5.27
2022-10-05T04:05:33.356Z,5.77
2022-10-05T04:08:11.238Z,6.10
2022-10-05T04:10:47.698Z,5.07
2022-10-05T04:13:26.262Z,5.10
2022-10-05T04:16:06.531Z,5.10
2022-10-05T04:18:43.733Z,5.23
2022-10-05T04:21:24.177Z,4.77
2022-10-05T04:24:14.612Z,5.10
2022-10-05T04:27:00.853Z,5.23
2022-10-05T04:29:44.726Z,5.50
2022-10-05T04:32:23.761Z,5.27
2022-10-05T04:35:24.371Z,5.67
2022-10-05T04:38:10.741Z,5.47
2022-10-05T04:40:58.553Z,5.30
2022-10-05T04:43:34.271Z,6.00
2022-10-05T04:46:32.925Z,5.77
2022-10-05T04:49:14.557Z,5.83
2022-10-05T04:51:51.124Z,5.30
2022-10-05T04:54:37.988Z,4.73
2022-10-05T04:57:17.749Z,5.10
2022-10-05T05:00:22.841Z,3.90
2022-10-05T05:03:13.686Z,3.87
2022-10-05T05:06:18.315Z,4.23
2022-10-05T05:09:19.127Z,3.77
2022-10-05T05:12:16.336Z,3.30
2022-10-05T05:14:53.523Z,3.40
2022-10-05T05:17:59.872Z,3.57
2022-10-05T05:20:32.706Z,3.27
2022-10-05T05:23:20.110Z,3.70
2022-10-05T05:26:26.602Z,3.60
2022-10-05T05:29:16.434Z,3.50
2022-10-05T05:31:59.308Z,3.67
2022-10-05T05:34:28.903Z,3.60
2022-10-05T05:37:19.860Z,3.80
2022-10-05T05:39:52.875Z,4.50
2022-10-05T05:42:40.608Z,4.37
2022-10-05T05:45:34.953Z,4.17
2022-10-05T05:48:13.820Z,3.97
2022-10-05T05:50:59.912Z,4.60
2022-10-05T05:53:36.964Z,4.20
2022-10-05T05:56:10.521Z,4.50
2022-10-05T05:58:41.655Z,4.10
2022-10-05T06:01:33.753Z,5.13
2022-10-05T06:04:22.649Z,4.80
2022-10-05T06:06:52.544Z,4.97
2022-10-05T06:09:38.357Z,4.93
2022-10-05T06:12:28.072Z,5.03
2022-10-05T06:15:03.874Z,5.43
2022-10-05T06:17:37.816Z,4.90
2022-10-05T06:20:16.771Z,5.20
2022-10-05T06:22:46.071Z,4.80
2022-10-05T06:25:40.224Z,5.43
2022-10-05T06:28:16.313Z,5.27
2022-10-05T06:31:12.349Z,5.40
2022-10-05T06:33:53.351Z,6.03
2022-10-05T06:36:54.482Z,5.27
2022-10-05T06:39:51.155Z,4.67
2022-10-05T06:42:19.506Z,4.90
2022-10-05T06:45:26.884Z,4.70
2022-10-05T06:48:47.160Z,4.70
2022-10-05T06:51:41.111Z,4.23
2022-10-05T06:54:50.222Z,4.77
2022-10-05T06:57:37.860Z,5.03
2022-10-05T07:00:17.157Z,4.57
2022-10-05T07:03:15.392Z,4.37
2022-10-05T07:06:02.604Z,4.47
2022-10-05T07:09:01.964Z,4.07
2022-10-05T07:12:13.655Z,4.73
2022-10-05T07:14:56.267Z,4.87
2022-10-05T07:17:38.433Z,4.23
2022-10-05T07:20:35.612Z,4.37
2022-10-05T07:23:24.686Z,3.93
2022-10-05T07:26:05.128Z,3.97
2022-10-05T07:28:37.751Z,4.13
2022-10-05T07:31:09.536Z,4.30
2022-10-05T07:33:52.583Z,4.50
2022-10-05T07:36:55.058Z,3.83
2022-10-05T07:40:00.528Z,4.07
2022-10-05T07:42:52.300Z,4.17
2022-10-05T07:45:31.955Z,4.43
2022-10-05T07:48:18.980Z,4.63
2022-10-05T07:51:11.282Z,4.07
2022-10-05T07:53:50.311Z,3.77
2022-10-05T07:56:43.418Z,3.90
2022-10-05T07:59:38.935Z,3.60
2022-10-05T08:02:44.539Z,3.57
2022-10-05T08:05:30.095Z,3.77
2022-10-05T08:08:14.334Z,3.80
2022-10-05T08:10:58.092Z,4.03
2022-10-05T08:13:39.658Z,3.67
2022-10-05T08:16:14.420Z,4.47
2022-10-05T08:18:54.672Z,4.10
2022-10-05T08:21:30.040Z,3.87
2022-10-05T08:24:05.190Z,4.37
2022-10-05T08:26:34.663Z,4.03
2022-10-05T08:29:16.377Z,3.83
2022-10-05T08:31:50.042Z,3.87
2022-10-05T08:34:43.056Z,3.83
2022-10-05T08:37:20.681Z,3.80
2022-10-05T08:39:56.430Z,3.43
2022-10-05T08:42:55.349Z,3.87
2022-10-05T08:45:44.231Z,3.80
2022-10-05T08:48:38.507Z,3.70
2022-10-05T08:51:11.506Z,3.80
2022-10-05T08:54:04.760Z,4.00
2022-10-05T08:57:13.979Z,4.10
2022-10-05T08:59:46.495Z,3.83
2022-10-05T09:02:20.967Z,3.93
2022-10-05T09:05:10.520Z,3.90
2022-10-05T09:08:04.309Z,3.70
2022-10-05T09:10:36.815Z,3.93
2022-10-05T09:13:09.254Z,3.90
2022-10-05T09:16:16.903Z,3.40
2022-10-05T09:18:52.572Z,3.97
2022-10-05T09:21:53.465Z,3.50
2022-10-05T09:24:48.250Z,3.63
2022-10-05T09:27:17.824Z,3.40
2022-10-05T09:29:53.078Z,4.07
2022-10-05T09:32:29.583Z,4.00
2022-10-05T09:35:17.840Z,3.90
2022-10-05T09:38:03.240Z,4.40
2022-10-05T09:40:51.307Z,3.47
2022-10-05T09:43:54.620Z,3.60
2022-10-05T09:46:46.824Z,3.57
2022-10-05T09:49:24.209Z,3.17
2022-10-05T09:52:16.435Z,3.17
2022-10-05T09:55:05.480Z,2.63
2022-10-05T09:58:17.017Z,2.90
2022-10-05T10:01:03.816Z,3.03
2022-10-05T10:04:24.681Z,2.10
2022-10-05T10:07:23.535Z,3.00
2022-10-05T10:10:16.246Z,3.00
2022-10-05T10:13:12.746Z,3.33
2022-10-05T10:15:54.649Z,3.47
2022-10-05T10:18:58.679Z,3.00
2022-10-05T10:22:02.972Z,2.93
2022-10-05T10:24:51.011Z,3.30
2022-10-05T10:27:30.038Z,3.77
2022-10-05T10:30:36.421Z,4.20
2022-10-05T10:33:21.985Z,4.03
2022-10-05T10:36:18.491Z,3.47
2022-10-05T10:39:00.031Z,3.57
2022-10-05T10:41:38.832Z,3.23
2022-10-05T10:44:14.327Z,3.40
2022-10-05T10:47:18.638Z,3.63
2022-10-05T10:50:24.198Z,3.47
2022-10-05T10:53:33.133Z,3.47
2022-10-05T10:56:17.995Z,3.80
2022-10-05T10:59:04.707Z,3.80
2022-10-05T11:01:59.611Z,3.70
2022-10-05T11:04:29.134Z,4.00
2022-10-05T11:06:58.621Z,3.63
2022-10-05T11:09:39.876Z,3.97
2022-10-05T11:12:37.923Z,3.30
2022-10-05T11:15:23.104Z,3.30
2022-10-05T11:18:16.242Z,3.50
2022-10-05T11:21:00.097Z,3.27
2022-10-05T11:24:04.396Z,3.63
2022-10-05T11:26:50.177Z,3.03
2022-10-05T11:29:54.389Z,8.23
2022-10-05T11:33:06.247Z,3.50
2022-10-05T11:35:58.809Z,5.33
2022-10-05T11:38:37.624Z,4.03
2022-10-05T11:41:31.652Z,4.27
2022-10-05T11:44:21.210Z,3.20
2022-10-05T11:47:08.966Z,3.40
2022-10-05T11:49:54.099Z,3.27
2022-10-05T11:52:44.915Z,3.07
2022-10-05T11:55:24.172Z,3.30
2022-10-05T11:58:07.499Z,3.30
2022-10-05T12:00:42.742Z,3.43
2022-10-05T12:03:31.574Z,3.20
2022-10-05T12:06:34.342Z,3.00
2022-10-05T12:09:23.076Z,3.30
2022-10-05T12:12:01.990Z,2.93
2022-10-05T12:14:59.127Z,3.07
2022-10-05T12:17:54.853Z,3.00
2022-10-05T12:20:48.942Z,3.33
2022-10-05T12:23:30.847Z,3.07
2022-10-05T12:26:04.484Z,3.10
2022-10-05T12:28:53.700Z,3.40
2022-10-05T12:31:54.498Z,3.00
2022-10-05T12:34:26.572Z,3.17
2022-10-05T12:37:04.127Z,3.10
2022-10-05T12:39:59.665Z,3.23
2022-10-05T12:42:30.378Z,3.67
2022-10-05T12:45:43.520Z,3.60
2022-10-05T12:48:39.320Z,3.40
2022-10-05T12:51:16.900Z,3.17
2022-10-05T12:54:08.348Z,2.80
2022-10-05T12:56:50.755Z,2.97
2022-10-05T12:59:45.055Z,2.50
2022-10-05T13:02:46.516Z,3.00
2022-10-05T13:05:40.724Z,3.00
2022-10-05T13:08:45.233Z,3.37
2022-10-05T13:11:20.803Z,3.20
2022-10-05T13:14:19.483Z,3.00
2022-10-05T13:17:08.585Z,2.77
2022-10-05T13:19:52.568Z,3.10
2022-10-05T13:22:28.093Z,3.07
2022-10-05T13:25:07.795Z,3.33
2022-10-05T13:27:40.159Z,3.17
2022-10-05T13:30:14.363Z,2.90
2022-10-05T13:32:47.873Z,3.00
2022-10-05T13:35:35.235Z,3.30
2022-10-05T13:38:34.093Z,3.57
2022-10-05T13:41:25.951Z,3.07
2022-10-05T13:44:11.033Z,3.00
2022-10-05T13:46:49.369Z,2.90
2022-10-05T13:49:59.480Z,2.97
2022-10-05T13:52:50.431Z,2.50
2022-10-05T13:55:22.811Z,2.70
2022-10-05T13:58:16.680Z,2.60
2022-10-05T14:00:51.904Z,2.77
2022-10-05T14:03:27.472Z,2.80
2022-10-05T14:05:57.622Z,2.80
2022-10-05T14:08:31.958Z,2.93
2022-10-05T14:10:58.947Z,2.80
2022-10-05T14:13:32.363Z,2.53
2022-10-05T14:16:13.445Z,3.07
2022-10-05T14:19:16.237Z,2.90
2022-10-05T14:21:49.804Z,2.60
2022-10-05T14:24:43.182Z,2.23
2022-10-05T14:27:21.694Z,2.63
2022-10-05T14:30:13.896Z,2.10
2022-10-05T14:33:06.954Z,2.63
2022-10-05T14:35:45.788Z,2.50
2022-10-05T14:38:26.588Z,2.30
2022-10-05T14:41:19.083Z,2.90
2022-10-05T14:43:56.821Z,2.40
2022-10-05T14:46:29.127Z,2.83
2022-10-05T14:49:10.872Z,2.67
2022-10-05T14:51:38.222Z,2.50
2022-10-05T14:54:46.587Z,2.37
2022-10-05T14:57:19.995Z,2.10
2022-10-05T15:00:11.093Z,2.10
2022-10-05T15:02:54.393Z,1.90
2022-10-05T15:05:45.985Z,2.03
2022-10-05T15:08:26.290Z,2.00
2022-10-05T15:11:00.680Z,2.20
2022-10-05T15:13:38.977Z,2.10
2022-10-05T15:16:20.231Z,2.07
2022-10-05T15:19:12.223Z,2.03
2022-10-05T15:21:42.350Z,2.57
2022-10-05T15:24:20.137Z,2.10
2022-10-05T15:26:53.682Z,2.37
2022-10-05T15:29:47.322Z,2.00
2022-10-05T15:32:19.575Z,2.43
2022-10-05T15:34:56.518Z,2.50
2022-10-05T15:37:32.994Z,2.60
2022-10-05T15:40:15.384Z,2.47
2022-10-05T15:42:43.075Z,2.63
2022-10-05T15:45:34.167Z,2.70
2022-10-05T15:48:06.771Z,3.33
2022-10-05T15:50:47.550Z,2.57
2022-10-05T15:53:27.216Z,2.67
2022-10-05T15:56:15.761Z,2.40
2022-10-05T15:58:51.703Z,2.40
2022-10-05T16:01:33.839Z,2.93
2022-10-05T16:04:20.398Z,1.97
2022-10-05T16:07:18.472Z,2.30
2022-10-05T16:10:19.759Z,2.07
2022-10-05T16:13:25.770Z,2.27
2022-10-05T16:16:21.011Z,2.00
2022-10-05T16:19:04.830Z,2.10
2022-10-05T16:21:52.879Z,2.47
2022-10-05T16:24:24.852Z,2.40
2022-10-05T16:27:07.054Z,2.50
2022-10-05T16:30:03.099Z,2.90
2022-10-05T16:32:46.695Z,2.67
2022-10-05T16:35:25.541Z,2.43
2022-10-05T16:38:10.277Z,2.20
2022-10-05T16:40:58.459Z,2.33
2022-10-05T16:43:37.319Z,2.23
2022-10-05T16:46:12.345Z,2.30
2022-10-05T16:49:14.247Z,2.70
2022-10-05T16:52:02.843Z,2.70
2022-10-05T16:54:48.366Z,2.73
2022-10-05T16:57:24.168Z,2.30
2022-10-05T17:00:15.668Z,2.10
2022-10-05T17:03:01.794Z,2.57
2022-10-05T17:06:04.552Z,2.33
2022-10-05T17:09:19.042Z,2.20
2022-10-05T17:11:58.069Z,2.37
2022-10-05T17:14:49.160Z,2.13
2022-10-05T17:17:30.894Z,2.43
2022-10-05T17:20:23.576Z,2.60
2022-10-05T17:23:20.376Z,2.77
2022-10-05T17:25:56.099Z,2.63
2022-10-05T17:28:24.720Z,2.40
2022-10-05T17:31:22.419Z,2.40
2022-10-05T17:34:17.790Z,2.60
2022-10-05T17:36:54.122Z,2.67
2022-10-05T17:39:23.662Z,2.63
2022-10-05T17:41:50.501Z,2.40
2022-10-05T17:44:20.566Z,2.60
2022-10-05T17:46:53.976Z,2.70
2022-10-05T17:49:26.696Z,2.40
2022-10-05T17:52:12.140Z,2.60
2022-10-05T17:55:20.192Z,2.20
2022-10-05T17:57:46.998Z,2.73
2022-10-05T18:00:25.767Z,2.57
2022-10-05T18:02:55.756Z,2.43
2022-10-05T18:05:28.114Z,2.53
2022-10-05T18:08:13.123Z,2.27
2022-10-05T18:11:10.999Z,2.40
2022-10-05T18:13:45.402Z,2.53
2022-10-05T18:16:13.448Z,2.40
2022-10-05T18:18:43.213Z,2.63
2022-10-05T18:21:18.343Z,2.23
2022-10-05T18:24:01.593Z,2.90
2022-10-05T18:26:34.200Z,2.40
2022-10-05T18:29:13.948Z,2.73
2022-10-05T18:32:06.720Z,3.20
2022-10-05T18:34:54.467Z,3.00
2022-10-05T18:37:21.493Z,2.93
2022-10-05T18:39:51.055Z,2.77
2022-10-05T18:42:27.065Z,3.37
2022-10-05T18:45:06.381Z,3.73
2022-10-05T18:48:07.952Z,3.03
2022-10-05T18:50:50.720Z,3.20
2022-10-05T18:53:42.580Z,2.70
2022-10-05T18:56:38.314Z,2.63
2022-10-05T18:59:37.244Z,2.50
2022-10-05T19:02:40.270Z,2.47
2022-10-05T19:05:46.228Z,3.03
2022-10-05T19:08:49.594Z,2.53
2022-10-05T19:11:57.755Z,2.00
2022-10-05T19:14:46.180Z,2.43
2022-10-05T19:17:41.918Z,2.33
2022-10-05T19:20:25.154Z,2.40
2022-10-05T19:23:09.404Z,2.40
2022-10-05T19:25:43.236Z,2.40
2022-10-05T19:28:37.305Z,2.90
2022-10-05T19:31:37.623Z,2.90
2022-10-05T19:34:16.588Z,3.23
2022-10-05T19:37:34.564Z,2.60
2022-10-05T19:40:09.688Z,2.90
2022-10-05T19:43:02.454Z,2.97
2022-10-05T19:45:33.316Z,2.43
2022-10-05T19:48:27.866Z,2.13
2022-10-05T19:50:59.329Z,2.43
2022-10-05T19:53:45.884Z,3.67
2022-10-05T19:56:25.305Z,8.73
2022-10-05T19:58:56.387Z,1.60
2022-10-05T20:01:33.494Z,1.50
2022-10-05T20:04:00.322Z,2.13
2022-10-05T20:06:29.411Z,1.27
2022-10-05T20:09:00.262Z,1.20
2022-10-05T20:11:28.254Z,1.80
2022-10-05T20:13:55.057Z,1.90
2022-10-05T20:16:50.979Z,2.10
2022-10-05T20:19:55.189Z,1.40
2022-10-05T20:22:35.297Z,1.33
2022-10-05T20:25:03.985Z,1.33
2022-10-05T20:27:39.738Z,1.30
2022-10-05T20:30:07.541Z,1.53
2022-10-05T20:32:34.356Z,1.20
2022-10-05T20:35:01.221Z,1.57
2022-10-05T20:37:28.155Z,1.40
2022-10-05T20:39:54.894Z,1.37
2022-10-05T20:42:23.778Z,1.27
2022-10-05T20:44:55.783Z,1.20
2022-10-05T20:47:23.921Z,1.40
2022-10-05T20:49:50.649Z,0.87
2022-10-05T20:52:17.400Z,0.87
2022-10-05T20:57:15.795Z,1.23
2022-10-05T20:59:42.565Z,1.83
2022-10-05T21:02:09.823Z,1.53
2022-10-05T21:04:40.987Z,1.60
2022-10-05T21:07:08.980Z,1.27
2022-10-05T21:09:38.242Z,1.50
2022-10-05T21:12:05.246Z,1.50
2022-10-05T21:14:34.294Z,1.70
2022-10-05T21:17:01.859Z,1.77
2022-10-05T21:19:29.436Z,1.23
2022-10-05T21:21:59.588Z,1.20
2022-10-05T21:24:29.140Z,1.27
2022-10-05T21:26:57.428Z,1.73
2022-10-05T21:29:24.185Z,0.83
2022-10-05T21:31:51.143Z,0.90
2022-10-05T21:34:18.022Z,1.20
2022-10-05T21:36:44.750Z,0.60
2022-10-05T21:39:11.675Z,0.70
2022-10-05T21:41:38.476Z,0.73
2022-10-05T21:44:06.710Z,0.70
2022-10-05T21:46:36.129Z,0.70
2022-10-05T21:49:03.013Z,0.80
2022-10-05T21:51:29.860Z,0.70
2022-10-05T21:54:15.522Z,0.80
2022-10-05T21:56:46.475Z,0.67
2022-10-05T21:59:16.730Z,0.60
2022-10-05T22:01:43.416Z,0.80
2022-10-05T22:04:10.252Z,0.90
2022-10-05T22:06:37.099Z,1.20
2022-10-05T22:09:05.120Z,0.90
2022-10-05T22:11:32.570Z,0.70
2022-10-05T22:14:02.628Z,0.97
2022-10-05T22:16:38.053Z,1.57
2022-10-05T22:19:10.582Z,1.57
2022-10-05T22:21:41.390Z,1.57
2022-10-05T22:24:09.233Z,1.07
2022-10-05T22:26:36.161Z,0.80
2022-10-05T22:29:03.676Z,0.83
2022-10-05T22:31:30.552Z,1.00
2022-10-05T22:33:57.348Z,0.87
2022-10-05T22:36:24.168Z,1.90
2022-10-05T22:38:50.880Z,1.47
2022-10-05T22:41:20.554Z,1.10
2022-10-05T22:43:50.056Z,1.57
2022-10-05T22:46:17.560Z,0.97
2022-10-05T22:48:44.331Z,1.30
2022-10-05T22:51:11.164Z,1.50
2022-10-05T22:53:38.293Z,1.30
2022-10-05T22:56:10.725Z,1.30
2022-10-05T22:58:38.239Z,1.10
2022-10-05T23:01:07.494Z,1.77
2022-10-05T23:03:34.495Z,1.10
2022-10-05T23:06:07.108Z,2.20
2022-10-05T23:08:35.644Z,1.50
2022-10-05T23:11:07.535Z,1.30
2022-10-05T23:13:34.375Z,1.63
2022-10-05T23:16:13.423Z,1.40
2022-10-05T23:18:40.369Z,2.40
2022-10-05T23:21:08.645Z,2.87
2022-10-05T23:23:37.363Z,1.70
2022-10-05T23:26:06.011Z,1.60
2022-10-05T23:28:33.849Z,1.70
2022-10-05T23:31:02.816Z,2.50
2022-10-05T23:33:30.116Z,1.63
2022-10-05T23:35:58.518Z,1.60
2022-10-05T23:38:26.173Z,1.53
2022-10-05T23:40:53.244Z,1.50
2022-10-05T23:43:20.204Z,1.73
2022-10-05T23:45:47.635Z,1.73
2022-10-05T23:48:14.552Z,1.73
2022-10-05T23:50:43.502Z,1.80
2022-10-05T23:53:10.231Z,1.73
2022-10-05T23:55:37.389Z,5.10
2022-10-05T23:58:04.757Z,3.07
